VTK601 UZTT-USPP
Flight info
| Callsign | VTK601 |
|---|---|
| Flight time | N/A |
| Altitude | 34000 |
| Route | NIMAG2H NIMAG Z632 GENDI M168 ALZIS L145 LANOR N993 AGNOK/K0819F350 M158 GEKTO GEKTO1F |
| Aircraft | MD88/M-SDFGIRWY/S |
Departure
| Time | 2026-04-28 08:45 |
|---|---|
| Airport | Tashkent International Airport (UZTT) |
Arrival
| Time | N/A |
|---|---|
| Airport | Perm International Airport (USPP) |
| Time | Latitude | Longitude | Altitude | Speed | Heading |
|---|---|---|---|---|---|
| 2026-04-28 08:14 | 41.26298 | 69.27271 | 1382 ft | 0 kts | 351° |
| 2026-04-28 08:33 | 41.26299 | 69.27270 | 1379 ft | 0 kts | 351° |
| 2026-04-28 08:33 | 41.26304 | 69.27269 | 1382 ft | 1 kts | 351° |
| 2026-04-28 08:34 | 41.26305 | 69.27269 | 1382 ft | 0 kts | 351° |
| 2026-04-28 08:34 | 41.26307 | 69.27269 | 1382 ft | 1 kts | 351° |
| 2026-04-28 08:35 | 41.26317 | 69.27265 | 1381 ft | 4 kts | 340° |
| 2026-04-28 08:35 | 41.26331 | 69.27228 | 1382 ft | 5 kts | 275° |
| 2026-04-28 08:35 | 41.26332 | 69.27200 | 1382 ft | 0 kts | 272° |
| 2026-04-28 08:35 | 41.26333 | 69.27183 | 1380 ft | 4 kts | 270° |
| 2026-04-28 08:36 | 41.26330 | 69.27145 | 1379 ft | 4 kts | 261° |
| 2026-04-28 08:36 | 41.26323 | 69.27090 | 1382 ft | 9 kts | 248° |
| 2026-04-28 08:36 | 41.26253 | 69.27068 | 1379 ft | 13 kts | 168° |
| 2026-04-28 08:36 | 41.26171 | 69.27122 | 1379 ft | 13 kts | 144° |
| 2026-04-28 08:37 | 41.26107 | 69.27192 | 1380 ft | 10 kts | 140° |
| 2026-04-28 08:37 | 41.26072 | 69.27265 | 1379 ft | 10 kts | 92° |
| 2026-04-28 08:37 | 41.26079 | 69.27357 | 1380 ft | 10 kts | 81° |
| 2026-04-28 08:37 | 41.26089 | 69.27453 | 1379 ft | 11 kts | 82° |
| 2026-04-28 08:38 | 41.26100 | 69.27552 | 1382 ft | 11 kts | 82° |
| 2026-04-28 08:38 | 41.26112 | 69.27656 | 1380 ft | 11 kts | 82° |
| 2026-04-28 08:38 | 41.26124 | 69.27763 | 1378 ft | 12 kts | 82° |
| 2026-04-28 08:38 | 41.26137 | 69.27885 | 1381 ft | 16 kts | 82° |
| 2026-04-28 08:39 | 41.26155 | 69.28044 | 1380 ft | 18 kts | 82° |
| 2026-04-28 08:39 | 41.26173 | 69.28210 | 1382 ft | 18 kts | 82° |
| 2026-04-28 08:39 | 41.26190 | 69.28377 | 1382 ft | 18 kts | 85° |
| 2026-04-28 08:39 | 41.26190 | 69.28545 | 1382 ft | 18 kts | 92° |
| 2026-04-28 08:40 | 41.26184 | 69.28713 | 1378 ft | 18 kts | 89° |
| 2026-04-28 08:40 | 41.26190 | 69.28882 | 1382 ft | 18 kts | 86° |
| 2026-04-28 08:40 | 41.26195 | 69.29051 | 1378 ft | 18 kts | 88° |
| 2026-04-28 08:40 | 41.26200 | 69.29219 | 1379 ft | 18 kts | 88° |
| 2026-04-28 08:41 | 41.26204 | 69.29389 | 1379 ft | 18 kts | 88° |
| 2026-04-28 08:41 | 41.26208 | 69.29533 | 1379 ft | 7 kts | 88° |
| 2026-04-28 08:41 | 41.26209 | 69.29552 | 1382 ft | 0 kts | 88° |
| 2026-04-28 08:41 | 41.26209 | 69.29553 | 1382 ft | 0 kts | 88° |
| 2026-04-28 08:42 | 41.26209 | 69.29559 | 1382 ft | 1 kts | 87° |
| 2026-04-28 08:42 | 41.26211 | 69.29612 | 1380 ft | 11 kts | 86° |
| 2026-04-28 08:42 | 41.26218 | 69.29753 | 1380 ft | 20 kts | 86° |
| 2026-04-28 08:42 | 41.26224 | 69.29936 | 1379 ft | 20 kts | 98° |
| 2026-04-28 08:43 | 41.26144 | 69.30070 | 1381 ft | 16 kts | 139° |
| 2026-04-28 08:43 | 41.26076 | 69.30089 | 1383 ft | 10 kts | 214° |
| 2026-04-28 08:43 | 41.26059 | 69.30038 | 1383 ft | 0 kts | 258° |
| 2026-04-28 08:44 | 41.26049 | 69.29966 | 1381 ft | 27 kts | 261° |
| 2026-04-28 08:45 | 41.25996 | 69.29480 | 1383 ft | 82 kts | 262° |
| 2026-04-28 08:45 | 41.25887 | 69.28483 | 1381 ft | 137 kts | 262° |
| 2026-04-28 08:45 | 41.25720 | 69.27026 | 1457 ft | 178 kts | 261° |
| 2026-04-28 08:45 | 41.25540 | 69.25543 | 2053 ft | 180 kts | 262° |
| 2026-04-28 08:46 | 41.25339 | 69.23889 | 2613 ft | 195 kts | 262° |
| 2026-04-28 08:46 | 41.25102 | 69.21866 | 2295 ft | 246 kts | 261° |
| 2026-04-28 08:46 | 41.24833 | 69.19643 | 3139 ft | 237 kts | 261° |
| 2026-04-28 08:46 | 41.24569 | 69.17493 | 3964 ft | 237 kts | 261° |
| 2026-04-28 08:47 | 41.24302 | 69.15298 | 4657 ft | 245 kts | 261° |
| 2026-04-28 08:47 | 41.24030 | 69.13031 | 5317 ft | 253 kts | 261° |
| 2026-04-28 08:47 | 41.23751 | 69.10683 | 5930 ft | 262 kts | 261° |
| 2026-04-28 08:47 | 41.23457 | 69.08252 | 6519 ft | 271 kts | 261° |
| 2026-04-28 08:48 | 41.23153 | 69.05742 | 7093 ft | 278 kts | 261° |
| 2026-04-28 08:48 | 41.22852 | 69.03176 | 7706 ft | 283 kts | 261° |
| 2026-04-28 08:48 | 41.22549 | 69.00574 | 8351 ft | 287 kts | 261° |
| 2026-04-28 08:48 | 41.22473 | 68.97913 | 8919 ft | 293 kts | 284° |
| 2026-04-28 08:49 | 41.23438 | 68.95568 | 9518 ft | 294 kts | 319° |
| 2026-04-28 08:49 | 41.25232 | 68.94319 | 10048 ft | 297 kts | 351° |
| 2026-04-28 08:49 | 41.27344 | 68.94171 | 10259 ft | 313 kts | 3° |
| 2026-04-28 08:49 | 41.29575 | 68.94323 | 10456 ft | 329 kts | 5° |
| 2026-04-28 08:50 | 41.31912 | 68.94573 | 10636 ft | 345 kts | 6° |
| 2026-04-28 08:50 | 41.34325 | 68.94896 | 10796 ft | 361 kts | 7° |
| 2026-04-28 08:50 | 41.36860 | 68.95257 | 11140 ft | 370 kts | 7° |
| 2026-04-28 08:50 | 41.39430 | 68.95606 | 11707 ft | 372 kts | 6° |
| 2026-04-28 08:51 | 41.42014 | 68.95925 | 12349 ft | 374 kts | 6° |
| 2026-04-28 08:51 | 41.44616 | 68.96222 | 12909 ft | 377 kts | 5° |
| 2026-04-28 08:51 | 41.47251 | 68.96503 | 13455 ft | 382 kts | 5° |
| 2026-04-28 08:51 | 41.49908 | 68.96775 | 14073 ft | 384 kts | 5° |
| 2026-04-28 08:52 | 41.52578 | 68.97042 | 14648 ft | 386 kts | 5° |
| 2026-04-28 08:52 | 41.55271 | 68.97313 | 15181 ft | 390 kts | 5° |
| 2026-04-28 08:52 | 41.57991 | 68.97588 | 15728 ft | 393 kts | 5° |
| 2026-04-28 08:52 | 41.60728 | 68.97872 | 16304 ft | 396 kts | 5° |
| 2026-04-28 08:53 | 41.63485 | 68.98160 | 16849 ft | 399 kts | 5° |
| 2026-04-28 08:53 | 41.66261 | 68.98455 | 17398 ft | 402 kts | 5° |
| 2026-04-28 08:53 | 41.69064 | 68.98752 | 17876 ft | 406 kts | 5° |
| 2026-04-28 08:53 | 41.71897 | 68.99050 | 18373 ft | 410 kts | 5° |
| 2026-04-28 08:54 | 41.74744 | 68.99352 | 18878 ft | 412 kts | 5° |
| 2026-04-28 08:54 | 41.76645 | 68.99555 | 19172 ft | 415 kts | 5° |
| 2026-04-28 08:54 | 41.79533 | 68.99865 | 19624 ft | 418 kts | 5° |
| 2026-04-28 08:54 | 41.82441 | 69.00176 | 20085 ft | 421 kts | 5° |
| 2026-04-28 08:55 | 41.85375 | 69.00490 | 20545 ft | 424 kts | 5° |
| 2026-04-28 08:55 | 41.88331 | 69.00806 | 20940 ft | 428 kts | 5° |
| 2026-04-28 08:55 | 41.92287 | 69.01225 | 21505 ft | 433 kts | 5° |
| 2026-04-28 08:55 | 41.94325 | 69.01442 | 21773 ft | 436 kts | 5° |
| 2026-04-28 08:56 | 41.98333 | 69.01226 | 22343 ft | 440 kts | 347° |
| 2026-04-28 08:56 | 42.00340 | 69.00547 | 22648 ft | 441 kts | 343° |
| 2026-04-28 08:56 | 42.03292 | 68.99343 | 23063 ft | 445 kts | 342° |
| 2026-04-28 08:56 | 42.06246 | 68.98086 | 23584 ft | 446 kts | 342° |
| 2026-04-28 08:57 | 42.09213 | 68.96828 | 23964 ft | 448 kts | 342° |
| 2026-04-28 08:57 | 42.12201 | 68.95583 | 24330 ft | 451 kts | 342° |
| 2026-04-28 08:57 | 42.15215 | 68.94359 | 24704 ft | 454 kts | 343° |
| 2026-04-28 08:57 | 42.18251 | 68.93156 | 25049 ft | 456 kts | 343° |
| 2026-04-28 08:58 | 42.21308 | 68.91963 | 25426 ft | 459 kts | 343° |
| 2026-04-28 08:58 | 42.24383 | 68.90769 | 25793 ft | 461 kts | 343° |
| 2026-04-28 08:58 | 42.27474 | 68.89565 | 26197 ft | 462 kts | 343° |
| 2026-04-28 08:58 | 42.30568 | 68.88356 | 26599 ft | 464 kts | 343° |
| 2026-04-28 08:59 | 42.33667 | 68.87139 | 27039 ft | 464 kts | 343° |
| 2026-04-28 08:59 | 42.36757 | 68.85922 | 27598 ft | 461 kts | 343° |
| 2026-04-28 08:59 | 42.39824 | 68.84712 | 28160 ft | 458 kts | 342° |
| 2026-04-28 08:59 | 42.42879 | 68.83500 | 28659 ft | 457 kts | 342° |
| 2026-04-28 09:00 | 42.45880 | 68.82111 | 29166 ft | 454 kts | 338° |
| 2026-04-28 09:00 | 42.48773 | 68.80565 | 29649 ft | 453 kts | 336° |
| 2026-04-28 09:00 | 42.51680 | 68.78940 | 30077 ft | 451 kts | 336° |
| 2026-04-28 09:00 | 42.54579 | 68.77316 | 30458 ft | 450 kts | 336° |
| 2026-04-28 09:01 | 42.57471 | 68.75711 | 30854 ft | 448 kts | 336° |
| 2026-04-28 09:01 | 42.60360 | 68.74132 | 31230 ft | 447 kts | 336° |
| 2026-04-28 09:01 | 42.63249 | 68.72575 | 31592 ft | 446 kts | 336° |
| 2026-04-28 09:01 | 42.66128 | 68.71034 | 31959 ft | 444 kts | 336° |
| 2026-04-28 09:02 | 42.68999 | 68.69499 | 32288 ft | 443 kts | 336° |
| 2026-04-28 09:02 | 42.71867 | 68.67962 | 32599 ft | 443 kts | 336° |
| 2026-04-28 09:02 | 42.74729 | 68.66424 | 32931 ft | 441 kts | 336° |
| 2026-04-28 09:02 | 42.77579 | 68.64890 | 33254 ft | 440 kts | 336° |
| 2026-04-28 09:03 | 42.80421 | 68.63357 | 33575 ft | 439 kts | 336° |
| 2026-04-28 09:03 | 42.83261 | 68.61822 | 33768 ft | 440 kts | 336° |
| 2026-04-28 09:03 | 42.86110 | 68.60287 | 33852 ft | 440 kts | 336° |
| 2026-04-28 09:04 | 42.91789 | 68.57246 | 33908 ft | 436 kts | 336° |
| 2026-04-28 09:04 | 42.97424 | 68.54230 | 33937 ft | 433 kts | 336° |
| 2026-04-28 09:05 | 43.03038 | 68.51218 | 33933 ft | 434 kts | 336° |
| 2026-04-28 09:05 | 43.08666 | 68.48193 | 33939 ft | 435 kts | 336° |
| 2026-04-28 09:06 | 43.14309 | 68.45163 | 33945 ft | 435 kts | 336° |
| 2026-04-28 09:06 | 43.19955 | 68.42116 | 33944 ft | 436 kts | 336° |
| 2026-04-28 09:07 | 43.25598 | 68.39061 | 33946 ft | 435 kts | 336° |
| 2026-04-28 09:07 | 43.31300 | 68.36344 | 33957 ft | 436 kts | 348° |
| 2026-04-28 09:08 | 43.37353 | 68.35500 | 33951 ft | 438 kts | 353° |
| 2026-04-28 09:08 | 43.43445 | 68.34857 | 33951 ft | 440 kts | 353° |
| 2026-04-28 09:09 | 43.49540 | 68.34122 | 33970 ft | 439 kts | 353° |
| 2026-04-28 09:09 | 43.55595 | 68.33306 | 33963 ft | 436 kts | 352° |
| 2026-04-28 09:10 | 43.61588 | 68.32481 | 33970 ft | 436 kts | 352° |
| 2026-04-28 09:10 | 43.67633 | 68.31663 | 33981 ft | 437 kts | 352° |
| 2026-04-28 09:11 | 43.73690 | 68.30832 | 33992 ft | 437 kts | 352° |
| 2026-04-28 09:11 | 43.79739 | 68.30006 | 33996 ft | 436 kts | 352° |
| 2026-04-28 09:12 | 43.85760 | 68.29194 | 34003 ft | 434 kts | 352° |
| 2026-04-28 09:12 | 43.91784 | 68.28384 | 34002 ft | 436 kts | 352° |
| 2026-04-28 09:13 | 43.97840 | 68.27553 | 34009 ft | 438 kts | 352° |
| 2026-04-28 09:13 | 44.03906 | 68.26724 | 34020 ft | 438 kts | 352° |
| 2026-04-28 09:14 | 44.09951 | 68.25895 | 34023 ft | 436 kts | 352° |
| 2026-04-28 09:14 | 44.15943 | 68.25081 | 34022 ft | 436 kts | 352° |
| 2026-04-28 09:15 | 44.21987 | 68.24250 | 34029 ft | 437 kts | 351° |
| 2026-04-28 09:15 | 44.28054 | 68.23404 | 34029 ft | 439 kts | 352° |
| 2026-04-28 09:16 | 44.34113 | 68.22563 | 34025 ft | 437 kts | 352° |
| 2026-04-28 09:16 | 44.40150 | 68.21734 | 34025 ft | 435 kts | 352° |
| 2026-04-28 09:17 | 44.46170 | 68.20912 | 34037 ft | 435 kts | 352° |
| 2026-04-28 09:17 | 44.52194 | 68.20075 | 34033 ft | 435 kts | 352° |
| 2026-04-28 09:18 | 44.58226 | 68.19237 | 34031 ft | 436 kts | 352° |
| 2026-04-28 09:18 | 44.64260 | 68.18402 | 34031 ft | 436 kts | 352° |
| 2026-04-28 09:19 | 44.70296 | 68.17568 | 34039 ft | 436 kts | 352° |
| 2026-04-28 09:19 | 44.76335 | 68.16725 | 34040 ft | 436 kts | 352° |
| 2026-04-28 09:20 | 44.82382 | 68.15878 | 34036 ft | 436 kts | 352° |
| 2026-04-28 09:20 | 44.88409 | 68.15037 | 34041 ft | 434 kts | 352° |
| 2026-04-28 09:21 | 44.94338 | 68.14202 | 34041 ft | 433 kts | 352° |
| 2026-04-28 09:21 | 45.00342 | 68.13352 | 34047 ft | 434 kts | 352° |
| 2026-04-28 09:22 | 45.06356 | 68.12509 | 34045 ft | 435 kts | 352° |
| 2026-04-28 09:22 | 45.12376 | 68.11663 | 34044 ft | 435 kts | 352° |
| 2026-04-28 09:23 | 45.18410 | 68.10811 | 34053 ft | 436 kts | 352° |
| 2026-04-28 09:23 | 45.24444 | 68.09954 | 34066 ft | 435 kts | 352° |
| 2026-04-28 09:24 | 45.30459 | 68.09105 | 34049 ft | 434 kts | 352° |
| 2026-04-28 09:24 | 45.36454 | 68.08250 | 34065 ft | 433 kts | 352° |
| 2026-04-28 09:25 | 45.42457 | 68.07390 | 34069 ft | 433 kts | 351° |
| 2026-04-28 09:25 | 45.48464 | 68.06530 | 34075 ft | 434 kts | 351° |
| 2026-04-28 09:26 | 45.54474 | 68.05671 | 34065 ft | 434 kts | 351° |
| 2026-04-28 09:26 | 45.60478 | 68.04808 | 34071 ft | 432 kts | 352° |
| 2026-04-28 09:27 | 45.69432 | 68.03527 | 34085 ft | 430 kts | 351° |
| 2026-04-28 09:27 | 45.75384 | 68.02671 | 34083 ft | 431 kts | 351° |
| 2026-04-28 09:28 | 45.81309 | 68.01815 | 34083 ft | 431 kts | 351° |
| 2026-04-28 09:28 | 45.87284 | 68.00949 | 34092 ft | 432 kts | 351° |
| 2026-04-28 09:29 | 45.93261 | 68.00087 | 34090 ft | 432 kts | 351° |
| 2026-04-28 09:29 | 45.99229 | 67.99215 | 34097 ft | 430 kts | 351° |
| 2026-04-28 09:30 | 46.05174 | 67.98328 | 34098 ft | 430 kts | 351° |
| 2026-04-28 09:30 | 46.11138 | 67.97445 | 34102 ft | 431 kts | 351° |
| 2026-04-28 09:31 | 46.17125 | 67.96566 | 34100 ft | 433 kts | 351° |
| 2026-04-28 09:31 | 46.23109 | 67.95694 | 34104 ft | 430 kts | 351° |
| 2026-04-28 09:32 | 46.29034 | 67.94826 | 34113 ft | 426 kts | 351° |
| 2026-04-28 09:32 | 46.34949 | 67.93955 | 34114 ft | 429 kts | 351° |
| 2026-04-28 09:33 | 46.40889 | 67.93070 | 34113 ft | 430 kts | 351° |
| 2026-04-28 09:33 | 46.46841 | 67.92189 | 34113 ft | 430 kts | 351° |
| 2026-04-28 09:34 | 46.52787 | 67.91305 | 34118 ft | 431 kts | 350° |
| 2026-04-28 09:34 | 46.58769 | 67.90547 | 34123 ft | 431 kts | 352° |
| 2026-04-28 09:35 | 46.64724 | 67.89996 | 34119 ft | 431 kts | 353° |
| 2026-04-28 09:35 | 46.70715 | 67.89447 | 34127 ft | 431 kts | 352° |
| 2026-04-28 09:36 | 46.76700 | 67.88859 | 34128 ft | 431 kts | 352° |
| 2026-04-28 09:36 | 46.82683 | 67.88248 | 34130 ft | 431 kts | 352° |
| 2026-04-28 09:37 | 46.88651 | 67.87640 | 34130 ft | 429 kts | 352° |
| 2026-04-28 09:37 | 46.94594 | 67.87035 | 34136 ft | 428 kts | 352° |
| 2026-04-28 09:38 | 47.00543 | 67.86425 | 34133 ft | 429 kts | 352° |
| 2026-04-28 09:38 | 47.06488 | 67.85638 | 34132 ft | 429 kts | 350° |
| 2026-04-28 09:39 | 47.12440 | 67.84745 | 34137 ft | 430 kts | 350° |
| 2026-04-28 09:39 | 47.18388 | 67.83872 | 34140 ft | 429 kts | 350° |
| 2026-04-28 09:40 | 47.24288 | 67.83030 | 34141 ft | 428 kts | 351° |
| 2026-04-28 09:40 | 47.30212 | 67.82191 | 34146 ft | 428 kts | 351° |
| 2026-04-28 09:41 | 47.36151 | 67.81348 | 34152 ft | 430 kts | 350° |
| 2026-04-28 09:41 | 47.42122 | 67.80497 | 34155 ft | 432 kts | 350° |
| 2026-04-28 09:42 | 47.48097 | 67.79640 | 34160 ft | 430 kts | 350° |
| 2026-04-28 09:42 | 47.54015 | 67.78789 | 34160 ft | 425 kts | 350° |
| 2026-04-28 09:43 | 47.59909 | 67.77937 | 34163 ft | 427 kts | 350° |
| 2026-04-28 09:43 | 47.65852 | 67.77076 | 34163 ft | 431 kts | 350° |
| 2026-04-28 09:44 | 47.70807 | 67.76353 | 34160 ft | 430 kts | 348° |
| 2026-04-28 09:44 | 47.73673 | 67.75297 | 34178 ft | 421 kts | 334° |
| 2026-04-28 09:44 | 47.76352 | 67.73566 | 34162 ft | 419 kts | 331° |
| 2026-04-28 09:45 | 47.81616 | 67.69795 | 34168 ft | 421 kts | 330° |
| 2026-04-28 09:45 | 47.86898 | 67.66025 | 34167 ft | 422 kts | 331° |
| 2026-04-28 09:46 | 47.92223 | 67.62339 | 34168 ft | 422 kts | 331° |
| 2026-04-28 09:46 | 47.97575 | 67.58696 | 34178 ft | 422 kts | 332° |
| 2026-04-28 09:47 | 48.02907 | 67.55052 | 34173 ft | 422 kts | 331° |
| 2026-04-28 09:47 | 48.08235 | 67.51390 | 34172 ft | 422 kts | 331° |
| 2026-04-28 09:48 | 48.13563 | 67.47704 | 34175 ft | 422 kts | 331° |
| 2026-04-28 09:48 | 48.18895 | 67.44003 | 34184 ft | 423 kts | 331° |
| 2026-04-28 09:49 | 48.24239 | 67.40292 | 34174 ft | 424 kts | 331° |
| 2026-04-28 09:49 | 48.29605 | 67.36557 | 34176 ft | 426 kts | 331° |
| 2026-04-28 09:50 | 48.34982 | 67.32815 | 34175 ft | 425 kts | 331° |
| 2026-04-28 09:50 | 48.40316 | 67.29019 | 34184 ft | 424 kts | 330° |
| 2026-04-28 09:51 | 48.45601 | 67.25040 | 34177 ft | 426 kts | 329° |
| 2026-04-28 09:51 | 48.50910 | 67.21041 | 34176 ft | 427 kts | 330° |
| 2026-04-28 09:52 | 48.56239 | 67.17063 | 34175 ft | 427 kts | 330° |
| 2026-04-28 09:52 | 48.61561 | 67.13102 | 34176 ft | 426 kts | 330° |
| 2026-04-28 09:53 | 48.66863 | 67.09139 | 34176 ft | 426 kts | 330° |
| 2026-04-28 09:53 | 48.72194 | 67.05149 | 34176 ft | 427 kts | 330° |
| 2026-04-28 09:54 | 48.77528 | 67.01138 | 34188 ft | 428 kts | 330° |
| 2026-04-28 09:54 | 48.82860 | 66.97108 | 34174 ft | 429 kts | 330° |
| 2026-04-28 09:55 | 48.88199 | 66.93072 | 34172 ft | 427 kts | 330° |
| 2026-04-28 09:55 | 48.93486 | 66.89071 | 34173 ft | 427 kts | 330° |
| 2026-04-28 09:56 | 48.98888 | 66.85259 | 34187 ft | 429 kts | 332° |
| 2026-04-28 09:56 | 49.04353 | 66.81595 | 34178 ft | 429 kts | 333° |
| 2026-04-28 09:57 | 49.09820 | 66.77917 | 34176 ft | 429 kts | 332° |
| 2026-04-28 09:57 | 49.15275 | 66.74201 | 34175 ft | 429 kts | 332° |
| 2026-04-28 09:58 | 49.20726 | 66.70456 | 34178 ft | 429 kts | 332° |
| 2026-04-28 09:58 | 49.26173 | 66.66702 | 34178 ft | 429 kts | 332° |
| 2026-04-28 09:59 | 49.31614 | 66.62952 | 34178 ft | 428 kts | 332° |
| 2026-04-28 09:59 | 49.37032 | 66.59199 | 34179 ft | 427 kts | 332° |
| 2026-04-28 10:00 | 49.42455 | 66.55427 | 34187 ft | 428 kts | 332° |
| 2026-04-28 10:00 | 49.47884 | 66.51653 | 34179 ft | 428 kts | 332° |
| 2026-04-28 10:01 | 49.53307 | 66.47883 | 34177 ft | 428 kts | 332° |
| 2026-04-28 10:01 | 49.58689 | 66.44133 | 34176 ft | 427 kts | 332° |
| 2026-04-28 10:02 | 49.64137 | 66.40324 | 34177 ft | 426 kts | 332° |
| 2026-04-28 10:02 | 49.69518 | 66.36554 | 34176 ft | 424 kts | 332° |
| 2026-04-28 10:03 | 49.74855 | 66.32801 | 34176 ft | 424 kts | 331° |
| 2026-04-28 10:03 | 49.80132 | 66.28691 | 34175 ft | 424 kts | 329° |
| 2026-04-28 10:04 | 49.85366 | 66.24439 | 34180 ft | 424 kts | 329° |
| 2026-04-28 10:04 | 49.90558 | 66.20283 | 34175 ft | 422 kts | 329° |
| 2026-04-28 10:05 | 49.95790 | 66.16143 | 34176 ft | 422 kts | 329° |
| 2026-04-28 10:05 | 50.01032 | 66.12000 | 34175 ft | 423 kts | 329° |
| 2026-04-28 10:06 | 50.06280 | 66.07833 | 34183 ft | 424 kts | 329° |
| 2026-04-28 10:06 | 50.11521 | 66.03656 | 34179 ft | 423 kts | 329° |
| 2026-04-28 10:07 | 50.16762 | 65.99500 | 34181 ft | 422 kts | 330° |
| 2026-04-28 10:07 | 50.22042 | 65.95526 | 34182 ft | 422 kts | 331° |
| 2026-04-28 10:08 | 50.27359 | 65.91588 | 34185 ft | 423 kts | 331° |
| 2026-04-28 10:08 | 50.32682 | 65.87620 | 34183 ft | 424 kts | 331° |
| 2026-04-28 10:09 | 50.37999 | 65.83619 | 34182 ft | 423 kts | 330° |
| 2026-04-28 10:09 | 50.43295 | 65.79607 | 34183 ft | 422 kts | 330° |
| 2026-04-28 10:10 | 50.48578 | 65.75603 | 34181 ft | 422 kts | 330° |
| 2026-04-28 10:10 | 50.53859 | 65.71601 | 34189 ft | 422 kts | 330° |
| 2026-04-28 10:11 | 50.59142 | 65.67584 | 34189 ft | 422 kts | 330° |
| 2026-04-28 10:11 | 50.64437 | 65.63553 | 34182 ft | 422 kts | 330° |
| 2026-04-28 10:12 | 50.69734 | 65.59514 | 34190 ft | 423 kts | 330° |
| 2026-04-28 10:12 | 50.75037 | 65.55452 | 34195 ft | 424 kts | 330° |
| 2026-04-28 10:13 | 50.80328 | 65.51362 | 34185 ft | 424 kts | 330° |
| 2026-04-28 10:13 | 50.85623 | 65.47272 | 34189 ft | 423 kts | 330° |
| 2026-04-28 10:14 | 50.90906 | 65.43205 | 34197 ft | 422 kts | 330° |
| 2026-04-28 10:14 | 50.96189 | 65.39123 | 34187 ft | 423 kts | 330° |
| 2026-04-28 10:15 | 51.01445 | 65.35045 | 34189 ft | 424 kts | 330° |
| 2026-04-28 10:15 | 51.06749 | 65.30922 | 34189 ft | 425 kts | 329° |
| 2026-04-28 10:16 | 51.12060 | 65.26792 | 34192 ft | 425 kts | 329° |
| 2026-04-28 10:16 | 51.17371 | 65.22623 | 34186 ft | 426 kts | 329° |
| 2026-04-28 10:17 | 51.22691 | 65.18433 | 34184 ft | 426 kts | 329° |
| 2026-04-28 10:17 | 51.27995 | 65.14268 | 34179 ft | 424 kts | 329° |
| 2026-04-28 10:18 | 51.33285 | 65.10105 | 34184 ft | 424 kts | 329° |
| 2026-04-28 10:18 | 51.38539 | 65.05960 | 34185 ft | 425 kts | 329° |
| 2026-04-28 10:19 | 51.43841 | 65.01767 | 34180 ft | 425 kts | 329° |
| 2026-04-28 10:19 | 51.49145 | 64.97563 | 34181 ft | 425 kts | 329° |
| 2026-04-28 10:20 | 51.54453 | 64.93350 | 34189 ft | 425 kts | 329° |
| 2026-04-28 10:20 | 51.59759 | 64.89130 | 34181 ft | 426 kts | 328° |
| 2026-04-28 10:21 | 51.65065 | 64.84885 | 34178 ft | 426 kts | 328° |
| 2026-04-28 10:21 | 51.70371 | 64.80628 | 34178 ft | 427 kts | 328° |
| 2026-04-28 10:22 | 51.75685 | 64.76361 | 34189 ft | 427 kts | 328° |
| 2026-04-28 10:22 | 51.81000 | 64.72066 | 34174 ft | 427 kts | 328° |
| 2026-04-28 10:23 | 51.86330 | 64.67788 | 34171 ft | 428 kts | 328° |
| 2026-04-28 10:23 | 51.91671 | 64.63541 | 34169 ft | 428 kts | 328° |
| 2026-04-28 10:24 | 51.97017 | 64.59287 | 34194 ft | 428 kts | 328° |
| 2026-04-28 10:24 | 52.02364 | 64.55027 | 34175 ft | 429 kts | 328° |
| 2026-04-28 10:25 | 52.07711 | 64.50733 | 34166 ft | 429 kts | 328° |
| 2026-04-28 10:25 | 52.13059 | 64.46428 | 34163 ft | 427 kts | 327° |
| 2026-04-28 10:26 | 52.18366 | 64.42129 | 34164 ft | 425 kts | 327° |
| 2026-04-28 10:26 | 52.23694 | 64.37805 | 34167 ft | 429 kts | 327° |
| 2026-04-28 10:27 | 52.29020 | 64.33413 | 34163 ft | 428 kts | 326° |
| 2026-04-28 10:27 | 52.33414 | 64.29678 | 34156 ft | 428 kts | 326° |
| 2026-04-28 10:28 | 52.39566 | 64.24454 | 34156 ft | 428 kts | 326° |
| 2026-04-28 10:29 | 52.46670 | 64.18461 | 34156 ft | 430 kts | 326° |
| 2026-04-28 10:29 | 52.51986 | 64.13959 | 34148 ft | 430 kts | 326° |
| 2026-04-28 10:30 | 52.57300 | 64.09443 | 34148 ft | 430 kts | 326° |
| 2026-04-28 10:30 | 52.62619 | 64.04914 | 34148 ft | 430 kts | 326° |
| 2026-04-28 10:31 | 52.67936 | 64.00359 | 34154 ft | 431 kts | 325° |
| 2026-04-28 10:31 | 52.73243 | 63.95784 | 34150 ft | 430 kts | 325° |
| 2026-04-28 10:32 | 52.78538 | 63.91225 | 34145 ft | 429 kts | 325° |
| 2026-04-28 10:32 | 52.83819 | 63.86674 | 34145 ft | 428 kts | 325° |
| 2026-04-28 10:33 | 52.89117 | 63.82112 | 34156 ft | 430 kts | 324° |
| 2026-04-28 10:33 | 52.94416 | 63.77523 | 34145 ft | 430 kts | 324° |
| 2026-04-28 10:34 | 52.99715 | 63.72911 | 34151 ft | 429 kts | 324° |
| 2026-04-28 10:34 | 53.04984 | 63.68317 | 34149 ft | 427 kts | 324° |
| 2026-04-28 10:35 | 53.10258 | 63.63710 | 34175 ft | 429 kts | 324° |
| 2026-04-28 10:35 | 53.15547 | 63.59080 | 34169 ft | 430 kts | 324° |
| 2026-04-28 10:36 | 53.20822 | 63.54360 | 34171 ft | 429 kts | 323° |
| 2026-04-28 10:36 | 53.25975 | 63.49361 | 34164 ft | 428 kts | 322° |
| 2026-04-28 10:37 | 53.31124 | 63.44340 | 34184 ft | 429 kts | 322° |
| 2026-04-28 10:37 | 53.36361 | 63.39327 | 34156 ft | 438 kts | 321° |
| 2026-04-28 10:38 | 53.41657 | 63.34233 | 34144 ft | 439 kts | 321° |
| 2026-04-28 10:38 | 53.46934 | 63.29163 | 34132 ft | 436 kts | 321° |
| 2026-04-28 10:39 | 53.52152 | 63.24132 | 34130 ft | 435 kts | 321° |
| 2026-04-28 10:39 | 53.57433 | 63.19004 | 34124 ft | 436 kts | 321° |
| 2026-04-28 10:40 | 53.62693 | 63.13855 | 34122 ft | 439 kts | 321° |
| 2026-04-28 10:40 | 53.67926 | 63.08746 | 34112 ft | 436 kts | 321° |
| 2026-04-28 10:41 | 53.73165 | 63.03629 | 34115 ft | 435 kts | 321° |
| 2026-04-28 10:41 | 53.78416 | 62.98487 | 34120 ft | 439 kts | 321° |
| 2026-04-28 10:42 | 53.83719 | 62.93269 | 34114 ft | 442 kts | 321° |
| 2026-04-28 10:42 | 53.89029 | 62.88036 | 34104 ft | 440 kts | 321° |
| 2026-04-28 10:43 | 53.94311 | 62.82819 | 34095 ft | 438 kts | 320° |
| 2026-04-28 10:43 | 53.99585 | 62.77592 | 34122 ft | 440 kts | 320° |
| 2026-04-28 10:44 | 54.04902 | 62.72297 | 34092 ft | 444 kts | 320° |
| 2026-04-28 10:44 | 54.09971 | 62.66518 | 34097 ft | 425 kts | 304° |
| 2026-04-28 10:45 | 54.13686 | 62.58888 | 34078 ft | 416 kts | 298° |
| 2026-04-28 10:45 | 54.17217 | 62.51068 | 34079 ft | 416 kts | 298° |
| 2026-04-28 10:46 | 54.20797 | 62.43247 | 34088 ft | 420 kts | 298° |
| 2026-04-28 10:46 | 54.24461 | 62.35391 | 34075 ft | 424 kts | 298° |
| 2026-04-28 10:47 | 54.28146 | 62.27543 | 34066 ft | 422 kts | 298° |
| 2026-04-28 10:47 | 54.31810 | 62.19719 | 34065 ft | 420 kts | 298° |
| 2026-04-28 10:48 | 54.35452 | 62.11902 | 34057 ft | 420 kts | 298° |
| 2026-04-28 10:48 | 54.39087 | 62.04032 | 34080 ft | 424 kts | 297° |
| 2026-04-28 10:49 | 54.42761 | 61.96030 | 34053 ft | 427 kts | 297° |
| 2026-04-28 10:49 | 54.46397 | 61.88033 | 34051 ft | 423 kts | 297° |
| 2026-04-28 10:50 | 54.50008 | 61.80070 | 34048 ft | 423 kts | 297° |
| 2026-04-28 10:50 | 54.53629 | 61.72085 | 34048 ft | 424 kts | 297° |
| 2026-04-28 10:51 | 54.57277 | 61.64076 | 34062 ft | 427 kts | 297° |
| 2026-04-28 10:51 | 54.60945 | 61.55989 | 34044 ft | 428 kts | 297° |
| 2026-04-28 10:52 | 54.64616 | 61.47872 | 34035 ft | 429 kts | 297° |
| 2026-04-28 10:52 | 54.68286 | 61.39753 | 34036 ft | 428 kts | 297° |
| 2026-04-28 10:53 | 54.71902 | 61.31632 | 34029 ft | 425 kts | 296° |
| 2026-04-28 10:53 | 54.75515 | 61.23501 | 34050 ft | 428 kts | 297° |
| 2026-04-28 10:54 | 54.79174 | 61.15304 | 34028 ft | 431 kts | 297° |
| 2026-04-28 10:54 | 54.82820 | 61.07048 | 34022 ft | 430 kts | 296° |
| 2026-04-28 10:55 | 54.86428 | 60.98815 | 34014 ft | 428 kts | 296° |
| 2026-04-28 10:55 | 54.90040 | 60.90601 | 34015 ft | 429 kts | 296° |
| 2026-04-28 10:56 | 54.93664 | 60.82363 | 34046 ft | 429 kts | 296° |
| 2026-04-28 10:56 | 54.97258 | 60.74157 | 34023 ft | 430 kts | 296° |
| 2026-04-28 10:57 | 55.00870 | 60.65864 | 34011 ft | 430 kts | 296° |
| 2026-04-28 10:57 | 55.04486 | 60.57558 | 34004 ft | 430 kts | 296° |
| 2026-04-28 10:58 | 55.08102 | 60.49246 | 33990 ft | 430 kts | 296° |
| 2026-04-28 10:58 | 55.11717 | 60.40930 | 34015 ft | 430 kts | 295° |
| 2026-04-28 10:59 | 55.15326 | 60.32620 | 33996 ft | 428 kts | 295° |
| 2026-04-28 10:59 | 55.18900 | 60.24331 | 33991 ft | 426 kts | 295° |
| 2026-04-28 11:00 | 55.22419 | 60.16088 | 33983 ft | 426 kts | 295° |
| 2026-04-28 11:00 | 55.25971 | 60.07753 | 33984 ft | 427 kts | 294° |
| 2026-04-28 11:01 | 55.29508 | 59.99357 | 34035 ft | 428 kts | 294° |
| 2026-04-28 11:01 | 55.33070 | 59.90936 | 34002 ft | 430 kts | 294° |
| 2026-04-28 11:02 | 55.36640 | 59.82532 | 33974 ft | 429 kts | 294° |
| 2026-04-28 11:02 | 55.40194 | 59.74130 | 33971 ft | 428 kts | 294° |
| 2026-04-28 11:03 | 55.43698 | 59.65660 | 33968 ft | 428 kts | 294° |
| 2026-04-28 11:03 | 55.47191 | 59.57153 | 33965 ft | 428 kts | 294° |
| 2026-04-28 11:04 | 55.50696 | 59.48639 | 33973 ft | 429 kts | 294° |
| 2026-04-28 11:04 | 55.54206 | 59.40115 | 33970 ft | 430 kts | 294° |
| 2026-04-28 11:05 | 55.57722 | 59.31564 | 33969 ft | 430 kts | 294° |
| 2026-04-28 11:05 | 55.61228 | 59.23030 | 33972 ft | 427 kts | 294° |
| 2026-04-28 11:06 | 55.64705 | 59.14528 | 33974 ft | 426 kts | 293° |
| 2026-04-28 11:06 | 55.68139 | 59.05886 | 33992 ft | 432 kts | 293° |
| 2026-04-28 11:07 | 55.71629 | 58.97188 | 33986 ft | 433 kts | 294° |
| 2026-04-28 11:07 | 55.75144 | 58.88536 | 33977 ft | 431 kts | 294° |
| 2026-04-28 11:08 | 55.78056 | 58.81371 | 33987 ft | 430 kts | 294° |
| 2026-04-28 11:08 | 55.81543 | 58.72731 | 33985 ft | 431 kts | 294° |
| 2026-04-28 11:09 | 55.84977 | 58.64006 | 34002 ft | 430 kts | 294° |
| 2026-04-28 11:09 | 55.88436 | 58.55233 | 34024 ft | 430 kts | 294° |
| 2026-04-28 11:10 | 55.91858 | 58.46574 | 33994 ft | 430 kts | 294° |
| 2026-04-28 11:10 | 55.95299 | 58.37859 | 33984 ft | 430 kts | 294° |
| 2026-04-28 11:11 | 55.98739 | 58.29111 | 33982 ft | 430 kts | 294° |
| 2026-04-28 11:11 | 56.02171 | 58.20371 | 34012 ft | 430 kts | 294° |
| 2026-04-28 11:12 | 56.05628 | 58.11537 | 33987 ft | 431 kts | 294° |
| 2026-04-28 11:12 | 56.09075 | 58.02740 | 33975 ft | 432 kts | 294° |
| 2026-04-28 11:13 | 56.12518 | 57.93916 | 33979 ft | 432 kts | 294° |
| 2026-04-28 11:13 | 56.15923 | 57.85056 | 33969 ft | 431 kts | 294° |
| 2026-04-28 11:14 | 56.19302 | 57.76171 | 34008 ft | 432 kts | 294° |
| 2026-04-28 11:14 | 56.22693 | 57.67308 | 33969 ft | 428 kts | 294° |
| 2026-04-28 11:15 | 56.26058 | 57.58511 | 33972 ft | 426 kts | 294° |
| 2026-04-28 11:15 | 56.29416 | 57.49703 | 33965 ft | 427 kts | 294° |
| 2026-04-28 11:16 | 56.32783 | 57.40861 | 33963 ft | 428 kts | 294° |
| 2026-04-28 11:16 | 56.36133 | 57.31980 | 33963 ft | 429 kts | 293° |
| 2026-04-28 11:17 | 56.39472 | 57.23047 | 33967 ft | 429 kts | 293° |
| 2026-04-28 11:17 | 56.42798 | 57.14134 | 33991 ft | 427 kts | 292° |
| 2026-04-28 11:18 | 56.46132 | 57.05196 | 33964 ft | 430 kts | 292° |
| 2026-04-28 11:18 | 56.49481 | 56.96216 | 33957 ft | 431 kts | 292° |
| 2026-04-28 11:19 | 56.52832 | 56.87218 | 33950 ft | 431 kts | 292° |
| 2026-04-28 11:19 | 56.56164 | 56.78230 | 33970 ft | 435 kts | 293° |
| 2026-04-28 11:20 | 56.59506 | 56.69070 | 33953 ft | 436 kts | 292° |
| 2026-04-28 11:20 | 56.62830 | 56.59870 | 33949 ft | 435 kts | 292° |
| 2026-04-28 11:21 | 56.66175 | 56.50723 | 33936 ft | 434 kts | 292° |
| 2026-04-28 11:21 | 56.69526 | 56.41601 | 33935 ft | 434 kts | 292° |
| 2026-04-28 11:22 | 56.72884 | 56.32428 | 33960 ft | 438 kts | 293° |
| 2026-04-28 11:22 | 56.76243 | 56.23099 | 33936 ft | 441 kts | 292° |
| 2026-04-28 11:23 | 56.79398 | 56.14298 | 33927 ft | 440 kts | 293° |
| 2026-04-28 11:23 | 56.82762 | 56.04997 | 33925 ft | 438 kts | 293° |
| 2026-04-28 11:24 | 56.86541 | 55.96151 | 33924 ft | 462 kts | 313° |
| 2026-04-28 11:24 | 56.89351 | 55.93075 | 33923 ft | 483 kts | 330° |
| 2026-04-28 11:24 | 56.92656 | 55.91351 | 33558 ft | 507 kts | 347° |
| 2026-04-28 11:24 | 56.96214 | 55.91198 | 33084 ft | 518 kts | 3° |
| 2026-04-28 11:25 | 56.99748 | 55.92641 | 32497 ft | 525 kts | 18° |
| 2026-04-28 11:25 | 57.03189 | 55.94970 | 31673 ft | 529 kts | 18° |
| 2026-04-28 11:25 | 57.06705 | 55.97089 | 30698 ft | 532 kts | 12° |
| 2026-04-28 11:25 | 57.10302 | 55.98721 | 29716 ft | 533 kts | 8° |
| 2026-04-28 11:26 | 57.13936 | 56.00033 | 28702 ft | 529 kts | 6° |
| 2026-04-28 11:26 | 57.17528 | 56.01196 | 27783 ft | 520 kts | 5° |
| 2026-04-28 11:26 | 57.21062 | 56.02313 | 26915 ft | 511 kts | 5° |
| 2026-04-28 11:26 | 57.24496 | 56.03854 | 26044 ft | 507 kts | 17° |
| 2026-04-28 11:27 | 57.27783 | 56.06293 | 25179 ft | 512 kts | 23° |
| 2026-04-28 11:27 | 57.31026 | 56.09062 | 24222 ft | 514 kts | 25° |
| 2026-04-28 11:27 | 57.34256 | 56.11892 | 23237 ft | 514 kts | 25° |
| 2026-04-28 11:27 | 57.37495 | 56.14707 | 22124 ft | 512 kts | 24° |
| 2026-04-28 11:28 | 57.40673 | 56.17414 | 21100 ft | 493 kts | 23° |
| 2026-04-28 11:28 | 57.43748 | 56.19982 | 20152 ft | 475 kts | 22° |
| 2026-04-28 11:28 | 57.46716 | 56.22425 | 19246 ft | 459 kts | 22° |
| 2026-04-28 11:28 | 57.49591 | 56.24776 | 18386 ft | 443 kts | 22° |
| 2026-04-28 11:29 | 57.52361 | 56.27044 | 17444 ft | 428 kts | 22° |
| 2026-04-28 11:29 | 57.55044 | 56.29245 | 16546 ft | 414 kts | 22° |
| 2026-04-28 11:29 | 57.57635 | 56.31380 | 15732 ft | 401 kts | 22° |
| 2026-04-28 11:29 | 57.60140 | 56.33455 | 14962 ft | 388 kts | 22° |
| 2026-04-28 11:30 | 57.62572 | 56.35475 | 14222 ft | 379 kts | 22° |
| 2026-04-28 11:30 | 57.67394 | 56.39487 | 12722 ft | 379 kts | 22° |
| 2026-04-28 11:30 | 57.69795 | 56.41485 | 12007 ft | 377 kts | 22° |
| 2026-04-28 11:31 | 57.72155 | 56.43452 | 11330 ft | 375 kts | 23° |
| 2026-04-28 11:31 | 57.74502 | 56.45425 | 10625 ft | 363 kts | 23° |
| 2026-04-28 11:31 | 57.76774 | 56.47197 | 10284 ft | 340 kts | 19° |
| 2026-04-28 11:31 | 57.78937 | 56.48566 | 10098 ft | 317 kts | 16° |
| 2026-04-28 11:32 | 57.80979 | 56.49738 | 9935 ft | 297 kts | 15° |
| 2026-04-28 11:32 | 57.82936 | 56.50828 | 9870 ft | 291 kts | 16° |
| 2026-04-28 11:32 | 57.84897 | 56.51913 | 9797 ft | 296 kts | 15° |
| 2026-04-28 11:32 | 57.86889 | 56.53014 | 9653 ft | 301 kts | 15° |
| 2026-04-28 11:33 | 57.88910 | 56.54149 | 9167 ft | 305 kts | 15° |
| 2026-04-28 11:33 | 57.90953 | 56.55190 | 8608 ft | 304 kts | 5° |
| 2026-04-28 11:33 | 57.93017 | 56.54947 | 8122 ft | 293 kts | 337° |
| 2026-04-28 11:33 | 57.94739 | 56.53149 | 7559 ft | 277 kts | 314° |
| 2026-04-28 11:34 | 57.96143 | 56.50763 | 7005 ft | 267 kts | 309° |
| 2026-04-28 11:34 | 57.97461 | 56.48354 | 6524 ft | 261 kts | 309° |
| 2026-04-28 11:34 | 57.98742 | 56.45942 | 6104 ft | 259 kts | 308° |
| 2026-04-28 11:34 | 58.00004 | 56.43559 | 5752 ft | 252 kts | 308° |
| 2026-04-28 11:35 | 58.01215 | 56.41284 | 5445 ft | 240 kts | 308° |
| 2026-04-28 11:35 | 58.02406 | 56.39053 | 5140 ft | 246 kts | 308° |
| 2026-04-28 11:35 | 58.03654 | 56.36700 | 4808 ft | 250 kts | 308° |
| 2026-04-28 11:35 | 58.04623 | 56.34262 | 4440 ft | 217 kts | 281° |
| 2026-04-28 11:36 | 58.04679 | 56.31701 | 4117 ft | 183 kts | 242° |
| 2026-04-28 11:36 | 58.04114 | 56.29695 | 3837 ft | 169 kts | 238° |
| 2026-04-28 11:36 | 58.03607 | 56.27772 | 3506 ft | 161 kts | 238° |
| 2026-04-28 11:36 | 58.03068 | 56.25979 | 3158 ft | 154 kts | 233° |
| 2026-04-28 11:37 | 58.02470 | 56.24351 | 2820 ft | 148 kts | 229° |
| 2026-04-28 11:37 | 58.01857 | 56.22884 | 2730 ft | 140 kts | 227° |
| 2026-04-28 11:37 | 58.01242 | 56.21451 | 2757 ft | 141 kts | 227° |
| 2026-04-28 11:37 | 58.00631 | 56.20031 | 2958 ft | 136 kts | 226° |
| 2026-04-28 11:38 | 57.99969 | 56.18654 | 3064 ft | 144 kts | 224° |
| 2026-04-28 11:38 | 57.99273 | 56.17293 | 2617 ft | 143 kts | 224° |
| 2026-04-28 11:38 | 57.98609 | 56.15979 | 2286 ft | 131 kts | 223° |
| 2026-04-28 11:38 | 57.98002 | 56.14812 | 2020 ft | 121 kts | 223° |
| 2026-04-28 11:39 | 57.97424 | 56.13711 | 1814 ft | 116 kts | 223° |
| 2026-04-28 11:39 | 57.96865 | 56.12630 | 1684 ft | 116 kts | 224° |
| 2026-04-28 11:39 | 57.96301 | 56.11535 | 1528 ft | 118 kts | 223° |
| 2026-04-28 11:39 | 57.95718 | 56.10387 | 1370 ft | 121 kts | 223° |
| 2026-04-28 11:40 | 57.95142 | 56.09289 | 1209 ft | 122 kts | 223° |
| 2026-04-28 11:40 | 57.94516 | 56.08091 | 1029 ft | 131 kts | 225° |
| 2026-04-28 11:40 | 57.93895 | 56.06874 | 853 ft | 128 kts | 225° |
| 2026-04-28 11:40 | 57.93274 | 56.05655 | 671 ft | 131 kts | 225° |
| 2026-04-28 11:41 | 57.92628 | 56.04410 | 488 ft | 134 kts | 224° |
| 2026-04-28 11:41 | 57.91984 | 56.03177 | 413 ft | 125 kts | 226° |
| 2026-04-28 11:41 | 57.91441 | 56.02120 | 397 ft | 92 kts | 226° |